Alaska Railroad Corporation
Mile 43 Hourly Weather Roundup
MILE_43 10/21/2017
CLICK HERE TO SEE GRAPH!!!

        DATE  TIME  Temp   Rel  Wind  Wind  Wind  Wind  WindPeakDi
                      F Humid   Spd   Dir  Gust   Spd  Gust      
                     AVG     %   RMY   RMY   RMY    PT    PT      

  10/21/2017 12:00    18    92     7   356    11     7    11      
  10/21/2017 11:00    18    93     6     6    10     6    10      
  10/21/2017 10:00    17    94     9     4    11     9    11      
  10/21/2017 09:00    17    94     9     7    11     8    11      
  10/21/2017 08:00    17    94     9    17    13    10    14      
  10/21/2017 07:00    17    90     8   356    13     7    14      
  10/21/2017 06:00    17    78     1   128     5     1     7      
  10/21/2017 05:00    17    78     9   113    14    11    17      
  10/21/2017 04:00    17    82    12   103    20    15    23      
  10/21/2017 03:00    17    88     9    75    17    10    20      
  10/21/2017 02:00    16    92     7    26    14     7    16      
  10/21/2017 01:00    15    91    13    12    16    13    17      
  10/20/2017 24:00    16    88    14    23    23    15    23      
  10/20/2017 23:00    15    91    14    24    20    15    20      
  10/20/2017 22:00    15    91    14    23    19    14    20      
  10/20/2017 21:00    15    88    11    17    16    11    17      
  10/20/2017 20:00    14    85     9    15    13     9    14      
  10/20/2017 19:00    14    74     8    12    14     8    13      
  10/20/2017 18:00    14    71     6     5    11     6    10      
  10/20/2017 17:00    15    61     5    20     8     5     8      
  10/20/2017 16:00    20    50     3    33     9     3    11      
  10/20/2017 15:00    19    56     4   174    11     5    16      
  10/20/2017 14:00    18    61     4   110    12     5    16      
  10/20/2017 13:00    15    61     4    82    12     5    16      


CLICK HERE TO SEE GRAPH!!!